createdAt,value
2023-04-19T00:00:09.017Z,100.00
2023-04-19T00:02:38.178Z,100.00
2023-04-19T00:05:06.604Z,100.00
2023-04-19T00:07:36.312Z,100.00
2023-04-19T00:10:04.477Z,100.00
2023-04-19T00:12:32.590Z,100.00
2023-04-19T00:15:00.398Z,100.00
2023-04-19T00:17:29.137Z,100.00
2023-04-19T00:19:57.741Z,100.00
2023-04-19T00:22:26.254Z,100.00
2023-04-19T00:24:54.158Z,100.00
2023-04-19T00:27:21.900Z,100.00
2023-04-19T00:29:49.679Z,100.00
2023-04-19T00:32:17.575Z,100.00
2023-04-19T00:34:45.462Z,100.00
2023-04-19T00:37:13.343Z,100.00
2023-04-19T00:39:41.190Z,100.00
2023-04-19T00:42:09.820Z,100.00
2023-04-19T00:44:37.688Z,100.00
2023-04-19T00:47:05.702Z,100.00
2023-04-19T00:49:34.109Z,100.00
2023-04-19T00:52:02.012Z,100.00
2023-04-19T00:54:29.988Z,100.00
2023-04-19T00:56:58.485Z,100.00
2023-04-19T00:59:26.217Z,100.00
2023-04-19T01:01:54.168Z,100.00
2023-04-19T01:04:23.210Z,100.00
2023-04-19T01:06:51.455Z,100.00
2023-04-19T01:09:19.409Z,100.00
2023-04-19T01:11:47.442Z,100.00
2023-04-19T01:14:16.294Z,100.00
2023-04-19T01:16:48.113Z,100.00
2023-04-19T01:19:16.848Z,100.00
2023-04-19T01:21:46.505Z,100.00
2023-04-19T01:24:14.520Z,100.00
2023-04-19T01:26:42.846Z,100.00
2023-04-19T01:29:10.718Z,100.00
2023-04-19T01:31:39.016Z,100.00
2023-04-19T01:34:07.018Z,100.00
2023-04-19T01:36:35.072Z,100.00
2023-04-19T01:39:02.978Z,100.00
2023-04-19T01:41:32.482Z,100.00
2023-04-19T01:44:01.215Z,100.00
2023-04-19T01:46:29.418Z,100.00
2023-04-19T01:48:57.432Z,100.00
2023-04-19T01:51:25.958Z,100.00
2023-04-19T01:53:54.749Z,100.00
2023-04-19T01:56:24.095Z,100.00
2023-04-19T01:58:51.890Z,100.00
2023-04-19T02:01:20.221Z,100.00
2023-04-19T02:03:48.292Z,100.00
2023-04-19T02:06:16.274Z,100.00
2023-04-19T02:08:44.021Z,100.00
2023-04-19T02:11:14.586Z,100.00
2023-04-19T02:13:42.986Z,100.00
2023-04-19T02:16:10.983Z,100.00
2023-04-19T02:18:39.479Z,100.00
2023-04-19T02:21:07.861Z,100.00
2023-04-19T02:23:35.746Z,100.00
2023-04-19T02:26:03.721Z,100.00
2023-04-19T02:28:31.912Z,100.00
2023-04-19T02:30:59.772Z,100.00
2023-04-19T02:33:29.239Z,100.00
2023-04-19T02:35:57.090Z,100.00
2023-04-19T02:38:24.902Z,100.00
2023-04-19T02:40:54.902Z,100.00
2023-04-19T02:43:22.751Z,100.00
2023-04-19T02:45:51.419Z,100.00
2023-04-19T02:48:19.939Z,100.00
2023-04-19T02:50:48.254Z,100.00
2023-04-19T02:53:16.219Z,100.00
2023-04-19T02:55:44.347Z,100.00
2023-04-19T02:58:16.442Z,100.00
2023-04-19T03:00:53.148Z,100.00
2023-04-19T03:03:22.748Z,100.00
2023-04-19T03:05:50.929Z,100.00
2023-04-19T03:08:19.552Z,100.00
2023-04-19T03:10:47.428Z,100.00
2023-04-19T03:13:16.394Z,100.00
2023-04-19T03:15:44.306Z,100.00
2023-04-19T03:18:12.859Z,100.00
2023-04-19T03:21:14.709Z,100.00
2023-04-19T03:23:57.049Z,100.00
2023-04-19T03:26:25.819Z,100.00
2023-04-19T03:28:55.216Z,100.00
2023-04-19T03:31:35.841Z,100.00
2023-04-19T03:34:04.368Z,100.00
2023-04-19T03:36:39.071Z,100.00
2023-04-19T03:39:07.020Z,100.00
2023-04-19T03:41:36.172Z,100.00
2023-04-19T03:44:09.499Z,100.00
2023-04-19T03:46:38.459Z,100.00
2023-04-19T03:49:06.751Z,100.00
2023-04-19T03:51:35.993Z,100.00
2023-04-19T03:54:04.541Z,100.00
2023-04-19T03:56:35.382Z,100.00
2023-04-19T03:59:03.196Z,100.00
2023-04-19T04:01:31.497Z,100.00
2023-04-19T04:04:00.110Z,100.00
2023-04-19T04:06:30.245Z,100.00
2023-04-19T04:08:59.204Z,100.00
2023-04-19T04:11:27.454Z,100.00
2023-04-19T04:13:56.044Z,100.00
2023-04-19T04:16:27.447Z,100.00
2023-04-19T04:18:55.852Z,100.00
2023-04-19T04:21:27.355Z,100.00
2023-04-19T04:23:56.924Z,100.00
2023-04-19T04:26:34.033Z,100.00
2023-04-19T04:29:25.062Z,100.00
2023-04-19T04:31:54.187Z,100.00
2023-04-19T04:34:25.932Z,100.00
2023-04-19T04:36:59.521Z,100.00
2023-04-19T04:39:27.402Z,100.00
2023-04-19T04:41:57.662Z,100.00
2023-04-19T04:44:26.099Z,100.00
2023-04-19T04:46:54.280Z,100.00
2023-04-19T04:49:25.480Z,100.00
2023-04-19T04:51:53.575Z,100.00
2023-04-19T04:54:22.013Z,100.00
2023-04-19T04:56:50.054Z,100.00
2023-04-19T04:59:19.031Z,100.00
2023-04-19T05:01:48.960Z,100.00
2023-04-19T05:04:17.702Z,100.00
2023-04-19T05:06:46.051Z,100.00
2023-04-19T05:09:15.943Z,100.00
2023-04-19T05:11:43.750Z,100.00
2023-04-19T05:14:12.845Z,100.00
2023-04-19T05:16:40.792Z,100.00
2023-04-19T05:19:08.664Z,100.00
2023-04-19T05:21:40.719Z,100.00
2023-04-19T05:24:10.141Z,100.00
2023-04-19T05:26:38.173Z,100.00
2023-04-19T05:29:06.249Z,100.00
2023-04-19T05:31:52.224Z,100.00
2023-04-19T05:34:26.617Z,100.00
2023-04-19T05:36:54.812Z,100.00
2023-04-19T05:39:22.697Z,100.00
2023-04-19T05:41:50.698Z,100.00
2023-04-19T05:44:18.709Z,100.00
2023-04-19T05:46:46.469Z,100.00
2023-04-19T05:49:16.095Z,100.00
2023-04-19T05:52:15.841Z,100.00
2023-04-19T05:54:56.119Z,100.00
2023-04-19T05:57:23.936Z,100.00
2023-04-19T05:59:51.842Z,100.00
2023-04-19T06:02:22.696Z,100.00
2023-04-19T06:04:50.822Z,100.00
2023-04-19T06:07:31.151Z,100.00
2023-04-19T06:10:00.687Z,100.00
2023-04-19T06:12:28.722Z,100.00
2023-04-19T06:14:56.632Z,100.00
2023-04-19T06:17:25.776Z,100.00
2023-04-19T06:19:53.872Z,100.00
2023-04-19T06:22:21.662Z,100.00
2023-04-19T06:24:49.553Z,100.00
2023-04-19T06:27:17.733Z,100.00
2023-04-19T06:29:45.853Z,100.00
2023-04-19T06:32:13.617Z,100.00
2023-04-19T06:34:41.459Z,100.00
2023-04-19T06:37:09.408Z,100.00
2023-04-19T06:39:37.301Z,98.77
2023-04-19T06:42:05.571Z,98.94
2023-04-19T06:44:34.779Z,100.00
2023-04-19T06:47:02.647Z,100.00
2023-04-19T06:49:31.885Z,97.82
2023-04-19T06:51:59.897Z,96.95
2023-04-19T06:54:27.874Z,97.00
2023-04-19T06:56:56.171Z,95.70
2023-04-19T06:59:25.274Z,95.99
2023-04-19T07:01:53.088Z,96.61
2023-04-19T07:04:21.284Z,93.87
2023-04-19T07:06:50.063Z,91.99
2023-04-19T07:09:17.836Z,93.52
2023-04-19T07:11:47.651Z,89.52
2023-04-19T07:14:15.771Z,90.78
2023-04-19T07:16:43.861Z,89.28
2023-04-19T07:19:11.887Z,89.58
2023-04-19T07:21:39.815Z,88.61
2023-04-19T07:24:07.577Z,86.45
2023-04-19T07:26:35.635Z,88.03
2023-04-19T07:29:03.687Z,89.52
2023-04-19T07:31:31.710Z,89.29
2023-04-19T07:33:59.409Z,90.84
2023-04-19T07:36:27.805Z,88.37
2023-04-19T07:38:55.502Z,86.01
2023-04-19T07:41:23.717Z,84.61
2023-04-19T07:43:51.499Z,84.70
2023-04-19T07:46:19.337Z,84.84
2023-04-19T07:48:47.183Z,84.30
2023-04-19T07:51:16.660Z,83.94
2023-04-19T07:53:44.463Z,85.30
2023-04-19T07:56:13.048Z,86.64
2023-04-19T07:58:41.865Z,84.19
2023-04-19T08:01:10.213Z,83.61
2023-04-19T08:03:38.975Z,85.74
2023-04-19T08:06:10.130Z,86.78
2023-04-19T08:08:37.942Z,86.06
2023-04-19T08:11:06.323Z,82.86
2023-04-19T08:13:34.322Z,80.26
2023-04-19T08:18:34.055Z,82.67
2023-04-19T08:21:02.084Z,83.30
2023-04-19T08:23:38.030Z,82.65
2023-04-19T08:26:15.478Z,80.11
2023-04-19T08:28:43.427Z,80.29
2023-04-19T08:31:11.403Z,81.05
2023-04-19T08:33:40.086Z,79.01
2023-04-19T08:36:08.673Z,76.26
2023-04-19T08:38:38.970Z,77.11
2023-04-19T08:41:06.667Z,80.09
2023-04-19T08:43:35.695Z,77.56
2023-04-19T08:46:04.264Z,81.68
2023-04-19T08:48:33.408Z,81.10
2023-04-19T08:51:05.596Z,81.31
2023-04-19T08:53:34.752Z,78.99
2023-04-19T08:58:51.963Z,79.96
2023-04-19T09:01:34.962Z,78.30
2023-04-19T09:04:21.609Z,78.62
2023-04-19T09:06:53.815Z,76.41
2023-04-19T09:11:53.116Z,74.01
2023-04-19T09:14:21.258Z,77.92
2023-04-19T09:16:49.488Z,76.44
2023-04-19T09:19:24.338Z,77.74
2023-04-19T09:21:54.712Z,79.39
2023-04-19T09:25:13.951Z,76.75
2023-04-19T09:27:28.111Z,72.39
2023-04-19T09:29:59.602Z,71.73
2023-04-19T09:32:28.082Z,71.57
2023-04-19T09:34:59.619Z,72.23
2023-04-19T09:39:58.480Z,68.05
2023-04-19T09:48:00.640Z,70.60
2023-04-19T09:50:28.871Z,68.83
2023-04-19T09:52:57.579Z,69.34
2023-04-19T09:55:29.025Z,72.45
2023-04-19T09:57:57.633Z,70.32
2023-04-19T10:00:25.586Z,70.08
2023-04-19T10:02:58.413Z,68.80
2023-04-19T10:05:26.802Z,67.36
2023-04-19T10:07:59.526Z,67.59
2023-04-19T10:10:41.426Z,65.89
2023-04-19T10:15:51.101Z,67.57
2023-04-19T10:18:21.620Z,64.70
2023-04-19T10:20:57.361Z,64.38
2023-04-19T10:23:25.237Z,63.93
2023-04-19T10:25:57.105Z,62.48
2023-04-19T10:28:24.818Z,62.01
2023-04-19T10:31:01.642Z,63.33
2023-04-19T10:33:36.879Z,65.51
2023-04-19T10:36:07.501Z,63.21
2023-04-19T10:38:36.709Z,62.62
2023-04-19T10:41:05.499Z,65.90
2023-04-19T10:43:34.550Z,66.53
2023-04-19T10:46:09.736Z,66.95
2023-04-19T10:48:38.774Z,65.70
2023-04-19T10:51:16.748Z,64.11
2023-04-19T10:53:50.975Z,65.16
2023-04-19T10:56:23.099Z,65.17
2023-04-19T10:59:11.702Z,62.69
2023-04-19T11:01:59.876Z,62.83
2023-04-19T11:04:31.322Z,62.45
2023-04-19T11:07:03.112Z,62.03
2023-04-19T11:09:42.328Z,64.04
2023-04-19T11:12:13.778Z,63.97
2023-04-19T11:14:42.271Z,61.67
2023-04-19T11:17:19.414Z,63.26
2023-04-19T11:19:53.917Z,63.72
2023-04-19T11:22:45.190Z,62.47
2023-04-19T11:25:13.937Z,65.00
2023-04-19T11:27:43.102Z,64.42
2023-04-19T11:30:14.334Z,63.20
2023-04-19T11:33:01.031Z,61.28
2023-04-19T11:35:30.484Z,62.15
2023-04-19T11:37:58.702Z,62.21
2023-04-19T11:40:26.818Z,61.60
2023-04-19T11:42:55.531Z,62.99
2023-04-19T11:45:30.187Z,65.24
2023-04-19T11:47:59.000Z,64.56
2023-04-19T11:50:30.623Z,64.57
2023-04-19T11:52:59.167Z,63.15
2023-04-19T11:55:26.951Z,63.38
2023-04-19T11:57:55.007Z,63.11
2023-04-19T12:00:30.703Z,62.98
2023-04-19T12:02:58.995Z,64.81
2023-04-19T12:05:27.547Z,64.75
2023-04-19T12:08:05.214Z,65.76
2023-04-19T12:10:33.093Z,65.96
2023-04-19T12:13:00.948Z,66.03
2023-04-19T12:15:42.557Z,65.86
2023-04-19T12:18:10.526Z,64.80
2023-04-19T12:20:38.944Z,65.34
2023-04-19T12:23:11.195Z,66.79
2023-04-19T12:25:39.263Z,66.15
2023-04-19T12:28:07.259Z,65.90
2023-04-19T12:30:36.461Z,66.75
2023-04-19T12:33:04.573Z,66.83
2023-04-19T12:35:34.130Z,67.37
2023-04-19T12:38:02.917Z,68.45
2023-04-19T12:40:31.064Z,69.10
2023-04-19T12:42:58.799Z,69.77
2023-04-19T12:45:26.899Z,69.05
2023-04-19T12:47:54.740Z,70.22
2023-04-19T12:50:22.707Z,69.84
2023-04-19T12:52:51.992Z,69.21
2023-04-19T12:55:20.131Z,69.24
2023-04-19T12:57:48.169Z,70.37
2023-04-19T13:00:17.653Z,70.35
2023-04-19T13:02:45.938Z,72.00
2023-04-19T13:05:13.866Z,71.79
2023-04-19T13:07:41.884Z,72.00
2023-04-19T13:10:09.938Z,73.62
2023-04-19T13:12:38.050Z,74.66
2023-04-19T13:15:06.249Z,76.16
2023-04-19T13:17:35.789Z,78.10
2023-04-19T13:20:04.434Z,77.77
2023-04-19T13:22:32.759Z,78.54
2023-04-19T13:25:00.624Z,81.14
2023-04-19T13:27:28.813Z,82.62
2023-04-19T13:29:56.901Z,82.47
2023-04-19T13:32:25.005Z,82.80
2023-04-19T13:34:53.089Z,83.27
2023-04-19T13:37:20.890Z,84.24
2023-04-19T13:39:48.964Z,84.61
2023-04-19T13:42:16.765Z,86.19
2023-04-19T13:44:44.650Z,86.44
2023-04-19T13:47:12.434Z,88.21
2023-04-19T13:49:40.268Z,88.93
2023-04-19T13:52:08.258Z,89.84
2023-04-19T13:54:35.986Z,90.49
2023-04-19T13:57:03.869Z,91.40
2023-04-19T13:59:31.697Z,92.35
2023-04-19T14:01:59.895Z,92.78
2023-04-19T14:04:27.850Z,93.28
2023-04-19T14:06:55.988Z,94.63
2023-04-19T14:09:24.050Z,96.31
2023-04-19T14:11:51.834Z,97.00
2023-04-19T14:14:19.744Z,96.62
2023-04-19T14:16:47.959Z,95.50
2023-04-19T14:19:15.793Z,93.59
2023-04-19T14:21:43.614Z,93.79
2023-04-19T14:24:11.355Z,93.30
2023-04-19T14:26:39.199Z,92.79
2023-04-19T14:29:06.982Z,93.67
2023-04-19T14:31:34.925Z,93.66
2023-04-19T14:34:03.148Z,93.46
2023-04-19T14:36:31.347Z,93.54
2023-04-19T14:38:59.150Z,93.59
2023-04-19T14:41:27.216Z,93.60
2023-04-19T14:43:56.227Z,93.95
2023-04-19T14:46:24.061Z,94.28
2023-04-19T14:48:52.085Z,94.34
2023-04-19T14:51:19.843Z,94.09
2023-04-19T14:53:47.786Z,93.02
2023-04-19T14:56:15.572Z,92.19
2023-04-19T14:58:43.438Z,91.99
2023-04-19T15:01:14.189Z,93.28
2023-04-19T15:03:43.441Z,92.38
2023-04-19T15:06:11.511Z,92.73
2023-04-19T15:08:40.496Z,92.89
2023-04-19T15:11:08.653Z,92.20
2023-04-19T15:13:36.572Z,90.29
2023-04-19T15:16:05.863Z,89.58
2023-04-19T15:18:33.899Z,89.18
2023-04-19T15:21:04.970Z,89.27
2023-04-19T15:23:33.237Z,88.74
2023-04-19T15:26:00.986Z,89.36
2023-04-19T15:28:29.024Z,87.72
2023-04-19T15:31:00.323Z,84.36
2023-04-19T15:33:28.371Z,83.74
2023-04-19T15:35:56.425Z,84.50
2023-04-19T15:38:24.966Z,85.21
2023-04-19T15:40:53.811Z,85.02
2023-04-19T15:43:22.131Z,84.14
2023-04-19T15:45:50.273Z,83.14
2023-04-19T15:48:18.241Z,81.12
2023-04-19T15:50:45.994Z,81.18
2023-04-19T15:53:13.811Z,81.56
2023-04-19T15:55:41.789Z,80.88
2023-04-19T15:58:09.566Z,82.36
2023-04-19T16:00:37.334Z,81.52
2023-04-19T16:03:05.369Z,81.46
2023-04-19T16:05:34.852Z,81.67
2023-04-19T16:08:09.385Z,81.15
2023-04-19T16:10:37.482Z,81.57
2023-04-19T16:13:08.406Z,82.22
2023-04-19T16:15:36.232Z,82.77
2023-04-19T16:18:04.284Z,82.72
2023-04-19T16:20:32.190Z,82.66
2023-04-19T16:23:03.397Z,83.91
2023-04-19T16:25:31.501Z,85.57
2023-04-19T16:27:59.547Z,85.75
2023-04-19T16:30:27.388Z,87.67
2023-04-19T16:32:55.664Z,87.44
2023-04-19T16:35:23.951Z,84.85
2023-04-19T16:37:54.037Z,84.75
2023-04-19T16:40:23.139Z,84.99
2023-04-19T16:42:51.085Z,85.45
2023-04-19T16:45:18.954Z,88.13
2023-04-19T16:47:46.925Z,88.62
2023-04-19T16:50:14.788Z,88.23
2023-04-19T16:52:42.654Z,88.52
2023-04-19T16:55:10.379Z,86.71
2023-04-19T16:57:38.482Z,85.27
2023-04-19T17:00:10.299Z,84.72
2023-04-19T17:02:39.090Z,83.83
2023-04-19T17:05:07.398Z,83.01
2023-04-19T17:07:36.868Z,82.29
2023-04-19T17:10:05.062Z,81.40
2023-04-19T17:12:33.287Z,81.89
2023-04-19T17:15:01.248Z,82.09
2023-04-19T17:17:29.378Z,82.11
2023-04-19T17:19:57.801Z,82.17
2023-04-19T17:22:25.821Z,82.23
2023-04-19T17:24:55.929Z,82.17
2023-04-19T17:27:23.681Z,81.46
2023-04-19T17:29:51.478Z,81.74
2023-04-19T17:32:19.308Z,82.47
2023-04-19T17:34:47.267Z,82.84
2023-04-19T17:37:15.071Z,83.58
2023-04-19T17:39:43.047Z,84.43
2023-04-19T17:42:10.763Z,85.31
2023-04-19T17:44:38.486Z,86.25
2023-04-19T17:47:06.706Z,86.64
2023-04-19T17:49:34.643Z,87.35
2023-04-19T17:52:02.496Z,87.86
2023-04-19T17:54:30.534Z,88.27
2023-04-19T17:56:59.449Z,88.16
2023-04-19T17:59:27.498Z,88.16
2023-04-19T18:01:56.765Z,86.98
2023-04-19T18:04:24.671Z,86.38
2023-04-19T18:06:52.758Z,85.53
2023-04-19T18:09:20.855Z,83.57
2023-04-19T18:11:48.652Z,81.95
2023-04-19T18:14:16.522Z,80.92
2023-04-19T18:16:44.603Z,80.40
2023-04-19T18:19:12.388Z,80.19
2023-04-19T18:21:40.284Z,79.71
2023-04-19T18:24:08.159Z,79.37
2023-04-19T18:26:36.507Z,79.13
2023-04-19T18:29:04.334Z,78.76
2023-04-19T18:31:32.141Z,78.66
2023-04-19T18:34:00.489Z,78.36
2023-04-19T18:36:28.934Z,77.90
2023-04-19T18:38:56.831Z,77.44
2023-04-19T18:41:24.708Z,77.99
2023-04-19T18:44:25.797Z,78.75
2023-04-19T18:46:42.525Z,78.43
2023-04-19T18:49:10.471Z,79.25
2023-04-19T18:51:38.469Z,79.22
2023-04-19T18:54:06.333Z,79.35
2023-04-19T18:59:05.025Z,80.23
2023-04-19T19:01:33.418Z,80.61
2023-04-19T19:04:23.966Z,81.53
2023-04-19T19:06:50.113Z,82.85
2023-04-19T19:09:18.462Z,83.18
2023-04-19T19:11:55.997Z,83.83
2023-04-19T19:14:24.926Z,85.12
2023-04-19T19:16:53.133Z,84.32
2023-04-19T19:19:22.669Z,84.20
2023-04-19T19:21:52.219Z,83.83
2023-04-19T19:24:20.053Z,83.25
2023-04-19T19:26:48.335Z,83.63
2023-04-19T19:29:16.722Z,83.95
2023-04-19T19:31:44.615Z,84.38
2023-04-19T19:34:23.365Z,84.93
2023-04-19T19:36:55.538Z,84.89
2023-04-19T19:39:23.397Z,84.53
2023-04-19T19:42:05.487Z,84.22
2023-04-19T19:44:34.604Z,84.36
2023-04-19T19:47:02.558Z,84.43
2023-04-19T19:49:45.663Z,84.07
2023-04-19T19:52:22.030Z,84.30
2023-04-19T19:54:49.737Z,83.78
2023-04-19T19:59:54.551Z,84.67
2023-04-19T20:02:24.482Z,85.25
2023-04-19T20:04:52.688Z,85.16
2023-04-19T20:09:52.482Z,85.02
2023-04-19T20:12:20.944Z,84.97
2023-04-19T20:14:48.805Z,86.69
2023-04-19T20:17:16.804Z,85.48
2023-04-19T20:19:45.047Z,85.97
2023-04-19T20:22:12.774Z,85.29
2023-04-19T20:24:42.230Z,85.66
2023-04-19T20:27:10.032Z,85.83
2023-04-19T20:29:37.810Z,85.31
2023-04-19T20:32:05.965Z,85.20
2023-04-19T20:34:34.198Z,85.83
2023-04-19T20:37:03.989Z,86.31
2023-04-19T20:39:31.860Z,86.68
2023-04-19T20:41:59.702Z,87.51
2023-04-19T20:44:27.651Z,86.93
2023-04-19T20:46:56.278Z,86.48
2023-04-19T20:49:24.100Z,86.95
2023-04-19T20:51:52.006Z,87.19
2023-04-19T20:54:19.867Z,85.16
2023-04-19T20:56:47.757Z,85.77
2023-04-19T20:59:15.807Z,85.66
2023-04-19T21:01:43.940Z,85.41
2023-04-19T21:04:12.221Z,85.16
2023-04-19T21:06:40.366Z,84.68
2023-04-19T21:09:08.404Z,84.74
2023-04-19T21:11:36.298Z,84.35
2023-04-19T21:14:04.517Z,83.89
2023-04-19T21:16:33.745Z,83.84
2023-04-19T21:19:01.934Z,84.26
2023-04-19T21:21:32.471Z,83.98
2023-04-19T21:24:00.476Z,83.78
2023-04-19T21:26:28.392Z,84.36
2023-04-19T21:28:56.169Z,84.56
2023-04-19T21:31:23.950Z,84.49
2023-04-19T21:33:51.838Z,84.73
2023-04-19T21:36:19.565Z,85.05
2023-04-19T21:38:47.293Z,85.11
2023-04-19T21:41:15.041Z,85.45
2023-04-19T21:43:42.898Z,85.27
2023-04-19T21:46:11.061Z,85.37
2023-04-19T21:48:39.569Z,85.63
2023-04-19T21:51:07.709Z,85.94
2023-04-19T21:53:36.332Z,86.24
2023-04-19T21:56:04.441Z,86.06
2023-04-19T21:58:32.397Z,86.37
2023-04-19T22:01:00.676Z,86.50
2023-04-19T22:03:28.743Z,86.52
2023-04-19T22:06:01.801Z,87.56
2023-04-19T22:08:32.162Z,87.42
2023-04-19T22:11:01.197Z,87.51
2023-04-19T22:13:30.179Z,87.83
2023-04-19T22:16:01.229Z,88.02
2023-04-19T22:18:29.238Z,87.76
2023-04-19T22:20:57.211Z,87.41
2023-04-19T22:23:25.074Z,87.27
2023-04-19T22:25:52.890Z,87.20
2023-04-19T22:28:20.759Z,87.89
2023-04-19T22:30:48.643Z,87.56
2023-04-19T22:33:16.630Z,87.44
2023-04-19T22:35:44.616Z,87.61
2023-04-19T22:38:12.490Z,87.15
2023-04-19T22:40:40.463Z,86.61
2023-04-19T22:43:08.311Z,86.79
2023-04-19T22:45:36.101Z,87.11
2023-04-19T22:48:04.201Z,87.50
2023-04-19T22:50:32.375Z,87.25
2023-04-19T22:53:00.404Z,87.36
2023-04-19T22:55:28.272Z,87.41
2023-04-19T22:57:56.386Z,86.75
2023-04-19T23:00:24.150Z,86.52
2023-04-19T23:02:52.080Z,86.06
2023-04-19T23:05:20.165Z,87.25
2023-04-19T23:07:49.686Z,86.93
2023-04-19T23:10:18.436Z,87.06
2023-04-19T23:12:49.392Z,86.62
2023-04-19T23:15:17.225Z,86.94
2023-04-19T23:17:45.225Z,85.91
2023-04-19T23:20:13.269Z,85.70
2023-04-19T23:22:41.250Z,85.85
2023-04-19T23:25:09.175Z,85.69
2023-04-19T23:27:37.031Z,85.48
2023-04-19T23:30:05.646Z,85.17
2023-04-19T23:32:33.542Z,84.54
2023-04-19T23:35:01.287Z,84.54
2023-04-19T23:37:29.472Z,84.69
2023-04-19T23:39:57.481Z,84.20
2023-04-19T23:42:25.261Z,83.92
2023-04-19T23:44:55.211Z,83.52
2023-04-19T23:47:23.254Z,83.56
2023-04-19T23:49:51.419Z,83.12
2023-04-19T23:52:22.665Z,82.82
2023-04-19T23:54:50.594Z,82.70
2023-04-19T23:57:18.687Z,82.57
2023-04-19T23:59:46.544Z,82.61
